createdAt,value
2018-11-12T00:00:46.918Z,69.34
2018-11-12T00:03:16.299Z,69.17
2018-11-12T00:05:45.083Z,68.86
2018-11-12T00:08:13.862Z,68.70
2018-11-12T00:10:43.005Z,68.96
2018-11-12T00:13:11.777Z,68.91
2018-11-12T00:15:40.586Z,69.74
2018-11-12T00:18:09.351Z,69.51
2018-11-12T00:20:38.108Z,69.03
2018-11-12T00:23:06.977Z,69.18
2018-11-12T00:25:35.739Z,69.19
2018-11-12T00:28:04.502Z,70.01
2018-11-12T00:30:33.339Z,69.75
2018-11-12T00:33:02.130Z,70.29
2018-11-12T00:35:30.914Z,69.70
2018-11-12T00:37:59.658Z,69.86
2018-11-12T00:40:28.491Z,69.93
2018-11-12T00:42:57.291Z,70.77
2018-11-12T00:45:26.062Z,69.93
2018-11-12T00:47:54.860Z,69.87
2018-11-12T00:50:23.626Z,69.74
2018-11-12T00:52:52.414Z,69.86
2018-11-12T00:55:21.182Z,69.90
2018-11-12T00:57:49.961Z,69.73
2018-11-12T01:00:20.047Z,69.89
2018-11-12T01:02:49.885Z,69.28
2018-11-12T01:05:19.431Z,69.07
2018-11-12T01:07:48.687Z,68.94
2018-11-12T01:10:18.475Z,68.80
2018-11-12T01:12:47.876Z,68.79
2018-11-12T01:15:17.965Z,68.73
2018-11-12T01:17:46.840Z,68.80
2018-11-12T01:20:16.579Z,68.87
2018-11-12T01:22:45.441Z,69.18
2018-11-12T01:25:14.768Z,68.92
2018-11-12T01:27:44.260Z,69.49
2018-11-12T01:30:15.468Z,69.58
2018-11-12T01:32:44.412Z,70.47
2018-11-12T01:35:14.220Z,70.05
2018-11-12T01:37:43.223Z,70.71
2018-11-12T01:40:13.010Z,71.90
2018-11-12T01:42:42.327Z,72.34
2018-11-12T01:45:14.678Z,72.45
2018-11-12T01:47:44.728Z,72.27
2018-11-12T01:50:13.965Z,72.71
2018-11-12T01:52:43.534Z,72.35
2018-11-12T01:55:13.522Z,72.30
2018-11-12T01:57:42.537Z,71.46
2018-11-12T02:00:19.470Z,71.39
2018-11-12T02:02:49.467Z,71.58
2018-11-12T02:05:18.783Z,70.39
2018-11-12T02:07:47.618Z,70.23
2018-11-12T02:10:17.579Z,70.02
2018-11-12T02:12:46.738Z,69.61
2018-11-12T02:15:16.951Z,69.34
2018-11-12T02:17:46.645Z,69.15
2018-11-12T02:20:16.596Z,69.22
2018-11-12T02:22:46.266Z,69.28
2018-11-12T02:25:15.874Z,69.52
2018-11-12T02:27:44.684Z,71.26
2018-11-12T02:30:48.717Z,72.07
2018-11-12T02:33:18.291Z,72.50
2018-11-12T02:35:47.218Z,72.33
2018-11-12T02:38:15.988Z,72.27
2018-11-12T02:40:44.795Z,72.04
2018-11-12T02:43:13.543Z,71.54
2018-11-12T02:45:42.739Z,72.04
2018-11-12T02:48:11.564Z,72.33
2018-11-12T02:50:40.352Z,72.09
2018-11-12T02:53:09.163Z,72.10
2018-11-12T02:55:38.048Z,71.44
2018-11-12T02:58:06.873Z,71.93
2018-11-12T03:00:35.651Z,71.26
2018-11-12T03:03:04.467Z,71.49
2018-11-12T03:05:33.260Z,71.54
2018-11-12T03:08:02.047Z,71.29
2018-11-12T03:10:30.803Z,71.01
2018-11-12T03:12:59.567Z,70.84
2018-11-12T03:15:28.370Z,70.58
2018-11-12T03:17:57.149Z,70.56
2018-11-12T03:20:25.915Z,70.68
2018-11-12T03:22:54.642Z,70.43
2018-11-12T03:25:23.468Z,70.01
2018-11-12T03:27:52.525Z,70.29
2018-11-12T03:30:22.471Z,70.70
2018-11-12T03:32:52.000Z,70.94
2018-11-12T03:35:20.808Z,71.02
2018-11-12T03:37:50.406Z,71.07
2018-11-12T03:40:21.343Z,70.98
2018-11-12T03:42:50.754Z,71.23
2018-11-12T03:45:22.544Z,71.98
2018-11-12T03:47:51.511Z,72.04
2018-11-12T03:50:21.841Z,71.78
2018-11-12T03:52:50.641Z,71.66
2018-11-12T03:55:20.553Z,72.03
2018-11-12T03:57:49.366Z,71.79
2018-11-12T04:00:21.045Z,72.55
2018-11-12T04:02:50.410Z,71.93
2018-11-12T04:05:19.183Z,71.88
2018-11-12T04:07:47.947Z,72.00
2018-11-12T04:10:19.776Z,72.04
2018-11-12T04:12:48.580Z,72.19
2018-11-12T04:15:18.855Z,72.15
2018-11-12T04:17:47.653Z,71.85
2018-11-12T04:20:17.721Z,71.91
2018-11-12T04:22:51.675Z,71.56
2018-11-12T04:25:20.579Z,71.41
2018-11-12T04:27:49.350Z,71.76
2018-11-12T04:30:18.158Z,71.43
2018-11-12T04:32:47.429Z,72.34
2018-11-12T04:35:16.202Z,72.76
2018-11-12T04:37:45.015Z,72.35
2018-11-12T04:40:15.739Z,71.77
2018-11-12T04:42:44.810Z,71.95
2018-11-12T04:45:14.802Z,72.09
2018-11-12T04:47:44.574Z,71.19
2018-11-12T04:50:15.590Z,71.40
2018-11-12T04:52:44.428Z,72.76
2018-11-12T04:55:15.361Z,73.43
2018-11-12T04:57:44.814Z,74.03
2018-11-12T05:00:17.720Z,74.07
2018-11-12T05:02:46.594Z,74.39
2018-11-12T05:05:16.753Z,74.39
2018-11-12T05:07:45.833Z,73.16
2018-11-12T05:10:16.156Z,72.30
2018-11-12T05:12:45.486Z,71.90
2018-11-12T05:15:16.014Z,71.68
2018-11-12T05:17:44.804Z,72.68
2018-11-12T05:20:16.526Z,72.77
2018-11-12T05:22:45.313Z,73.21
2018-11-12T05:25:14.070Z,73.55
2018-11-12T05:27:42.836Z,73.72
2018-11-12T05:30:16.315Z,74.33
2018-11-12T05:32:45.168Z,73.99
2018-11-12T05:35:15.104Z,74.26
2018-11-12T05:37:44.161Z,75.40
2018-11-12T05:40:15.932Z,74.78
2018-11-12T05:42:44.949Z,74.71
2018-11-12T05:45:15.133Z,75.09
2018-11-12T05:47:44.018Z,74.81
2018-11-12T05:50:18.317Z,74.96
2018-11-12T05:52:48.730Z,75.51
2018-11-12T05:55:19.047Z,75.73
2018-11-12T05:57:48.305Z,75.72
2018-11-12T06:00:19.147Z,75.67
2018-11-12T06:02:47.971Z,75.24
2018-11-12T06:05:17.232Z,75.22
2018-11-12T06:07:45.977Z,75.19
2018-11-12T06:10:16.879Z,75.06
2018-11-12T06:12:45.890Z,75.50
2018-11-12T06:15:14.995Z,75.04
2018-11-12T06:17:44.497Z,75.54
2018-11-12T06:20:16.710Z,74.67
2018-11-12T06:22:45.942Z,74.73
2018-11-12T06:25:16.140Z,75.13
2018-11-12T06:27:44.922Z,74.92
2018-11-12T06:30:21.799Z,74.84
2018-11-12T06:32:50.726Z,74.86
2018-11-12T06:35:20.126Z,73.80
2018-11-12T06:37:49.881Z,73.32
2018-11-12T06:40:19.938Z,72.72
2018-11-12T06:42:48.817Z,73.15
2018-11-12T06:45:19.718Z,73.38
2018-11-12T06:47:49.312Z,73.81
2018-11-12T06:50:19.524Z,73.26
2018-11-12T06:52:48.437Z,73.08
2018-11-12T06:55:18.022Z,72.28
2018-11-12T06:57:47.135Z,71.73
2018-11-12T07:00:18.282Z,71.84
2018-11-12T07:02:47.084Z,71.81
2018-11-12T07:05:16.122Z,70.97
2018-11-12T07:07:44.935Z,71.02
2018-11-12T07:10:15.052Z,71.03
2018-11-12T07:12:44.761Z,70.69
2018-11-12T07:15:14.983Z,70.14
2018-11-12T07:17:45.523Z,69.93
2018-11-12T07:20:17.743Z,69.30
2018-11-12T07:22:46.648Z,68.47
2018-11-12T07:25:16.490Z,67.84
2018-11-12T07:27:45.437Z,66.89
2018-11-12T07:30:18.452Z,66.59
2018-11-12T07:32:47.850Z,66.05
2018-11-12T07:35:17.254Z,65.70
2018-11-12T07:37:47.169Z,65.83
2018-11-12T07:40:16.790Z,66.05
2018-11-12T07:42:45.671Z,65.52
2018-11-12T07:45:15.726Z,65.67
2018-11-12T07:47:45.463Z,65.79
2018-11-12T07:50:16.997Z,65.65
2018-11-12T07:52:45.991Z,65.66
2018-11-12T07:55:16.940Z,65.22
2018-11-12T07:57:46.634Z,65.23
2018-11-12T08:00:17.846Z,64.94
2018-11-12T08:02:47.593Z,65.18
2018-11-12T08:05:16.703Z,65.44
2018-11-12T08:07:45.745Z,65.25
2018-11-12T08:10:17.167Z,64.62
2018-11-12T08:12:46.345Z,64.69
2018-11-12T08:15:16.523Z,65.17
2018-11-12T08:17:45.449Z,65.03
2018-11-12T08:20:15.734Z,65.09
2018-11-12T08:22:45.653Z,64.93
2018-11-12T08:25:14.523Z,64.72
2018-11-12T08:27:43.845Z,64.07
2018-11-12T08:30:14.967Z,64.09
2018-11-12T08:32:44.809Z,64.29
2018-11-12T08:35:14.255Z,63.85
2018-11-12T08:37:43.639Z,63.67
2018-11-12T08:40:13.903Z,63.13
2018-11-12T08:42:43.567Z,63.04
2018-11-12T08:45:13.251Z,63.01
2018-11-12T08:47:43.177Z,62.25
2018-11-12T08:50:14.135Z,61.95
2018-11-12T08:52:44.043Z,61.43
2018-11-12T08:55:14.610Z,61.36
2018-11-12T08:57:45.218Z,60.87
2018-11-12T09:00:14.714Z,61.12
2018-11-12T09:02:43.673Z,60.83
2018-11-12T09:05:13.760Z,61.03
2018-11-12T09:07:43.838Z,60.42
2018-11-12T09:10:14.788Z,61.10
2018-11-12T09:12:44.451Z,60.37
2018-11-12T09:15:14.026Z,60.16
2018-11-12T09:17:43.634Z,59.75
2018-11-12T09:20:15.150Z,60.16
2018-11-12T09:22:43.979Z,59.83
2018-11-12T09:25:14.673Z,59.51
2018-11-12T09:27:43.590Z,59.27
2018-11-12T09:30:19.726Z,59.01
2018-11-12T09:32:48.654Z,59.26
2018-11-12T09:35:22.961Z,58.75
2018-11-12T09:37:52.671Z,58.08
2018-11-12T09:40:28.726Z,58.76
2018-11-12T09:42:57.584Z,58.04
2018-11-12T09:45:26.996Z,57.63
2018-11-12T09:47:55.901Z,58.19
2018-11-12T09:50:25.818Z,57.64
2018-11-12T09:52:56.123Z,57.56
2018-11-12T09:55:26.662Z,57.25
2018-11-12T09:57:57.745Z,57.47
2018-11-12T10:00:26.780Z,57.04
2018-11-12T10:02:56.208Z,56.87
2018-11-12T10:05:26.480Z,57.46
2018-11-12T10:07:58.477Z,56.56
2018-11-12T10:10:36.070Z,56.57
2018-11-12T10:13:04.867Z,56.01
2018-11-12T10:15:35.921Z,56.33
2018-11-12T10:18:03.798Z,55.62
2018-11-12T10:20:30.210Z,55.36
2018-11-12T10:22:59.015Z,55.71
2018-11-12T10:25:27.805Z,54.61
2018-11-12T10:27:56.577Z,55.49
2018-11-12T10:30:25.392Z,55.21
2018-11-12T10:32:54.154Z,55.12
2018-11-12T10:35:22.977Z,55.11
2018-11-12T10:37:51.855Z,54.45
2018-11-12T10:40:22.715Z,54.26
2018-11-12T10:42:51.562Z,54.42
2018-11-12T10:45:20.652Z,53.72
2018-11-12T10:47:50.515Z,53.77
2018-11-12T10:50:20.022Z,53.74
2018-11-12T10:52:48.828Z,53.87
2018-11-12T10:55:20.020Z,53.77
2018-11-12T10:57:49.323Z,52.88
2018-11-12T11:00:38.836Z,53.61
2018-11-12T11:03:15.084Z,52.93
2018-11-12T11:05:46.231Z,52.76
2018-11-12T11:08:15.076Z,52.23
2018-11-12T11:10:44.044Z,52.51
2018-11-12T11:13:12.878Z,51.87
2018-11-12T11:15:41.714Z,51.81
2018-11-12T11:18:10.993Z,51.43
2018-11-12T11:20:39.776Z,51.85
2018-11-12T11:23:08.513Z,51.47
2018-11-12T11:28:28.076Z,51.03
2018-11-12T11:30:56.925Z,51.62
2018-11-12T11:33:25.836Z,50.73
2018-11-12T11:35:54.839Z,51.29
2018-11-12T11:38:23.687Z,50.84
2018-11-12T11:40:52.468Z,51.19
2018-11-12T11:43:21.440Z,51.15
2018-11-12T11:45:50.227Z,50.79
2018-11-12T11:48:19.110Z,50.74
2018-11-12T11:50:48.071Z,51.01
2018-11-12T11:53:16.945Z,50.83
2018-11-12T11:55:46.007Z,50.58
2018-11-12T11:58:14.848Z,49.98
2018-11-12T12:00:43.658Z,49.81
2018-11-12T12:03:12.453Z,50.57
2018-11-12T12:05:41.262Z,49.91
2018-11-12T12:08:10.122Z,50.16
2018-11-12T12:10:39.011Z,49.68
2018-11-12T12:13:07.784Z,49.52
2018-11-12T12:15:36.551Z,49.64
2018-11-12T12:18:05.395Z,49.91
2018-11-12T12:20:34.251Z,49.96
2018-11-12T12:23:03.062Z,48.99
2018-11-12T12:25:31.832Z,49.33
2018-11-12T12:28:00.797Z,49.49
2018-11-12T12:30:29.746Z,49.60
2018-11-12T12:32:59.039Z,48.78
2018-11-12T12:35:27.852Z,48.60
2018-11-12T12:37:56.802Z,49.38
2018-11-12T12:40:26.236Z,49.07
2018-11-12T12:42:55.081Z,48.22
2018-11-12T12:45:25.343Z,48.06
2018-11-12T12:47:54.969Z,48.66
2018-11-12T12:50:23.734Z,48.91
2018-11-12T12:52:52.481Z,47.87
2018-11-12T12:55:21.329Z,48.60
2018-11-12T12:57:50.387Z,47.75
2018-11-12T13:00:21.941Z,47.65
2018-11-12T13:02:50.703Z,47.70
2018-11-12T13:05:19.502Z,47.72
2018-11-12T13:07:48.270Z,47.26
2018-11-12T13:10:18.567Z,47.60
2018-11-12T13:12:47.381Z,47.23
2018-11-12T13:15:17.336Z,47.03
2018-11-12T13:17:46.986Z,47.16
2018-11-12T13:20:17.268Z,46.12
2018-11-12T13:22:46.806Z,47.20
2018-11-12T13:25:16.213Z,46.97
2018-11-12T13:27:45.675Z,47.65
2018-11-12T13:30:17.567Z,46.73
2018-11-12T13:32:46.779Z,47.34
2018-11-12T13:35:16.985Z,47.15
2018-11-12T13:37:45.768Z,46.81
2018-11-12T13:40:17.430Z,47.48
2018-11-12T13:42:47.947Z,46.75
2018-11-12T13:45:16.744Z,47.02
2018-11-12T13:47:45.958Z,47.28
2018-11-12T13:50:16.873Z,47.26
2018-11-12T13:52:46.188Z,47.11
2018-11-12T13:55:16.095Z,46.99
2018-11-12T13:57:44.887Z,47.72
2018-11-12T14:00:17.044Z,47.25
2018-11-12T14:02:46.996Z,47.96
2018-11-12T14:05:17.220Z,47.70
2018-11-12T14:07:46.273Z,47.42
2018-11-12T14:10:17.220Z,48.09
2018-11-12T14:12:46.339Z,47.90
2018-11-12T14:15:18.389Z,47.50
2018-11-12T14:17:47.790Z,47.35
2018-11-12T14:20:16.732Z,47.90
2018-11-12T14:22:45.634Z,47.70
2018-11-12T14:25:15.706Z,47.74
2018-11-12T14:27:45.202Z,47.70
2018-11-12T14:30:16.578Z,48.01
2018-11-12T14:32:45.385Z,48.51
2018-11-12T14:35:14.784Z,48.67
2018-11-12T14:37:44.659Z,48.32
2018-11-12T14:40:14.533Z,48.36
2018-11-12T14:42:43.414Z,49.52
2018-11-12T14:45:13.832Z,49.48
2018-11-12T14:47:43.304Z,49.55
2018-11-12T14:50:12.859Z,49.42
2018-11-12T14:52:41.703Z,50.03
2018-11-12T14:55:12.179Z,49.74
2018-11-12T14:57:41.332Z,49.57
2018-11-12T15:00:17.154Z,49.84
2018-11-12T15:02:46.072Z,49.78
2018-11-12T15:05:15.460Z,50.47
2018-11-12T15:07:44.292Z,50.89
2018-11-12T15:10:13.996Z,50.65
2018-11-12T15:12:43.365Z,50.48
2018-11-12T15:15:12.686Z,50.08
2018-11-12T15:17:41.734Z,49.90
2018-11-12T15:20:13.708Z,50.10
2018-11-12T15:22:42.557Z,49.66
2018-11-12T15:25:16.262Z,49.52
2018-11-12T15:27:45.588Z,50.11
2018-11-12T15:30:18.061Z,50.47
2018-11-12T15:32:47.826Z,50.98
2018-11-12T15:35:16.638Z,50.56
2018-11-12T15:37:46.225Z,51.30
2018-11-12T15:40:15.560Z,51.70
2018-11-12T15:42:44.339Z,51.21
2018-11-12T15:45:24.993Z,51.10
2018-11-12T15:47:53.834Z,51.52
2018-11-12T15:50:30.794Z,51.09
2018-11-12T15:52:59.629Z,51.83
2018-11-12T15:55:28.519Z,51.72
2018-11-12T15:57:57.456Z,51.75
2018-11-12T16:00:26.454Z,51.65
2018-11-12T16:02:55.249Z,52.42
2018-11-12T16:05:24.093Z,52.26
2018-11-12T16:07:52.912Z,52.20
2018-11-12T16:10:22.578Z,52.42
2018-11-12T16:12:51.782Z,52.87
2018-11-12T16:15:21.530Z,52.97
2018-11-12T16:17:50.392Z,53.17
2018-11-12T16:20:24.491Z,52.63
2018-11-12T16:22:53.676Z,53.01
2018-11-12T16:25:23.038Z,53.70
2018-11-12T16:27:51.853Z,53.47
2018-11-12T16:30:23.195Z,53.15
2018-11-12T16:32:51.996Z,53.58
2018-11-12T16:35:22.522Z,54.14
2018-11-12T16:37:52.240Z,53.59
2018-11-12T16:40:21.089Z,53.62
2018-11-12T16:42:50.772Z,54.31
2018-11-12T16:45:19.579Z,53.62
2018-11-12T16:47:48.834Z,53.27
2018-11-12T16:50:18.360Z,53.77
2018-11-12T16:52:47.414Z,54.69
2018-11-12T16:55:18.070Z,54.93
2018-11-12T16:57:47.098Z,54.66
2018-11-12T17:00:19.562Z,55.19
2018-11-12T17:02:48.970Z,54.96
2018-11-12T17:05:19.098Z,55.08
2018-11-12T17:07:47.856Z,54.97
2018-11-12T17:10:18.022Z,55.24
2018-11-12T17:12:47.477Z,55.25
2018-11-12T17:15:16.927Z,55.05
2018-11-12T17:17:45.958Z,55.51
2018-11-12T17:20:16.142Z,55.82
2018-11-12T17:22:45.366Z,55.96
2018-11-12T17:25:15.122Z,55.74
2018-11-12T17:27:44.540Z,56.14
2018-11-12T17:30:18.229Z,56.18
2018-11-12T17:32:47.529Z,56.25
2018-11-12T17:35:17.738Z,56.17
2018-11-12T17:37:46.480Z,56.61
2018-11-12T17:40:19.543Z,56.04
2018-11-12T17:42:49.256Z,56.53
2018-11-12T17:45:19.346Z,56.94
2018-11-12T17:47:49.287Z,57.58
2018-11-12T17:50:18.196Z,57.72
2018-11-12T17:52:47.136Z,57.58
2018-11-12T17:55:15.970Z,57.44
2018-11-12T17:57:44.848Z,56.86
2018-11-12T18:00:25.878Z,56.50
2018-11-12T18:02:54.741Z,57.13
2018-11-12T18:05:23.536Z,57.98
2018-11-12T18:07:52.373Z,57.87
2018-11-12T18:10:21.399Z,57.15
2018-11-12T18:12:50.233Z,57.45
2018-11-12T18:15:20.370Z,58.49
2018-11-12T18:17:49.366Z,58.58
2018-11-12T18:20:23.359Z,58.36
2018-11-12T18:22:53.408Z,58.53
2018-11-12T18:25:22.367Z,59.23
2018-11-12T18:27:51.212Z,58.39
2018-11-12T18:30:22.101Z,58.55
2018-11-12T18:32:56.079Z,58.55
2018-11-12T18:35:29.545Z,59.84
2018-11-12T18:37:58.566Z,59.91
2018-11-12T18:40:31.256Z,60.36
2018-11-12T18:43:03.488Z,59.86
2018-11-12T18:45:32.344Z,58.55
2018-11-12T18:48:01.271Z,58.75
2018-11-12T18:50:31.161Z,59.06
2018-11-12T18:52:59.990Z,59.48
2018-11-12T18:55:28.838Z,59.41
2018-11-12T18:57:57.933Z,59.60
2018-11-12T19:00:27.317Z,59.49
2018-11-12T19:02:56.372Z,59.72
2018-11-12T19:05:27.507Z,59.68
2018-11-12T19:07:58.247Z,59.79
2018-11-12T19:10:30.145Z,59.83
2018-11-12T19:12:59.423Z,60.03
2018-11-12T19:15:29.741Z,60.93
2018-11-12T19:18:00.346Z,60.81
2018-11-12T19:20:29.186Z,60.55
2018-11-12T19:22:57.994Z,60.46
2018-11-12T19:25:26.782Z,59.74
2018-11-12T19:27:55.570Z,59.93
2018-11-12T19:30:25.773Z,60.35
2018-11-12T19:32:55.002Z,60.61
2018-11-12T19:35:25.147Z,60.93
2018-11-12T19:37:53.988Z,61.40
2018-11-12T19:40:24.270Z,61.58
2018-11-12T19:42:53.970Z,61.57
2018-11-12T19:45:22.910Z,61.54
2018-11-12T19:47:52.968Z,61.44
2018-11-12T19:50:23.041Z,61.53
2018-11-12T19:52:53.148Z,61.70
2018-11-12T19:55:21.975Z,62.74
2018-11-12T19:57:50.899Z,62.32
2018-11-12T20:00:22.823Z,62.52
2018-11-12T20:02:52.830Z,62.22
2018-11-12T20:05:21.634Z,62.07
2018-11-12T20:07:50.779Z,61.94
2018-11-12T20:10:20.819Z,62.00
2018-11-12T20:12:49.680Z,62.35
2018-11-12T20:15:19.823Z,62.19
2018-11-12T20:17:49.378Z,62.30
2018-11-12T20:20:20.774Z,62.79
2018-11-12T20:22:50.240Z,63.23
2018-11-12T20:25:19.824Z,63.18
2018-11-12T20:27:49.289Z,63.56
2018-11-12T20:30:26.717Z,63.58
2018-11-12T20:32:55.536Z,63.62
2018-11-12T20:35:24.449Z,63.34
2018-11-12T20:37:53.534Z,63.36
2018-11-12T20:40:22.307Z,63.49
2018-11-12T20:42:51.159Z,63.31
2018-11-12T20:45:20.847Z,63.45
2018-11-12T20:47:51.197Z,63.76
2018-11-12T20:50:20.250Z,63.91
2018-11-12T20:52:49.100Z,64.23
2018-11-12T20:55:18.575Z,64.46
2018-11-12T20:57:47.660Z,64.37
2018-11-12T21:00:21.481Z,64.43
2018-11-12T21:02:51.382Z,64.26
2018-11-12T21:05:23.146Z,64.60
2018-11-12T21:07:51.958Z,64.10
2018-11-12T21:10:21.452Z,64.87
2018-11-12T21:12:50.708Z,64.84
2018-11-12T21:15:20.591Z,65.25
2018-11-12T21:17:49.408Z,64.59
2018-11-12T21:20:20.477Z,65.05
2018-11-12T21:22:49.386Z,64.93
2018-11-12T21:25:19.607Z,64.79
2018-11-12T21:27:48.446Z,64.78
2018-11-12T21:30:19.737Z,64.57
2018-11-12T21:32:48.834Z,65.03
2018-11-12T21:35:17.666Z,64.95
2018-11-12T21:37:46.851Z,64.67
2018-11-12T21:40:17.027Z,64.92
2018-11-12T21:42:46.023Z,64.61
2018-11-12T21:45:17.146Z,65.00
2018-11-12T21:47:46.098Z,64.59
2018-11-12T21:50:16.578Z,64.86
2018-11-12T21:52:45.399Z,65.35
2018-11-12T21:55:14.479Z,65.32
2018-11-12T21:57:43.824Z,65.58
2018-11-12T22:00:17.633Z,65.77
2018-11-12T22:02:48.515Z,66.09
2018-11-12T22:05:17.679Z,65.62
2018-11-12T22:07:46.504Z,65.83
2018-11-12T22:10:16.118Z,66.48
2018-11-12T22:12:46.266Z,67.06
2018-11-12T22:15:15.127Z,66.38
2018-11-12T22:17:44.004Z,66.38
2018-11-12T22:20:14.042Z,65.63
2018-11-12T22:22:43.329Z,65.92
2018-11-12T22:25:13.650Z,66.03
2018-11-12T22:27:42.882Z,65.77
2018-11-12T22:30:16.080Z,65.58
2018-11-12T22:32:46.162Z,65.59
2018-11-12T22:35:15.012Z,65.71
2018-11-12T22:37:44.510Z,66.12
2018-11-12T22:40:14.395Z,65.58
2018-11-12T22:42:43.985Z,65.65
2018-11-12T22:45:15.963Z,65.67
2018-11-12T22:47:45.626Z,65.81
2018-11-12T22:50:14.350Z,66.03
2018-11-12T22:52:43.846Z,66.21
2018-11-12T22:55:13.894Z,67.44
2018-11-12T22:57:42.667Z,67.36
2018-11-12T23:00:19.938Z,67.22
2018-11-12T23:02:49.541Z,66.56
2018-11-12T23:05:19.189Z,67.46
2018-11-12T23:07:48.600Z,68.10
2018-11-12T23:10:17.898Z,67.95
2018-11-12T23:12:46.775Z,67.40
2018-11-12T23:15:15.961Z,66.81
2018-11-12T23:17:44.768Z,66.24
2018-11-12T23:20:19.802Z,66.83
2018-11-12T23:22:49.206Z,66.21
2018-11-12T23:25:18.071Z,66.70
2018-11-12T23:27:47.443Z,66.65
2018-11-12T23:30:17.537Z,67.08
2018-11-12T23:32:46.348Z,67.49
2018-11-12T23:35:16.423Z,66.75
2018-11-12T23:37:45.832Z,67.74
2018-11-12T23:40:15.035Z,67.40
2018-11-12T23:42:44.432Z,67.23
2018-11-12T23:45:13.230Z,66.88
2018-11-12T23:47:42.043Z,66.76
2018-11-12T23:50:18.015Z,66.34
2018-11-12T23:52:47.660Z,67.12
2018-11-12T23:55:16.560Z,67.61
2018-11-12T23:57:46.323Z,67.71
